createdAt,value
2023-02-19T00:01:21.841Z,100365.00
2023-02-19T00:03:52.262Z,100359.00
2023-02-19T00:06:19.845Z,100354.00
2023-02-19T00:08:46.661Z,100361.00
2023-02-19T00:11:15.955Z,100364.00
2023-02-19T00:13:45.053Z,100359.00
2023-02-19T00:16:22.859Z,100372.00
2023-02-19T00:18:49.825Z,100365.00
2023-02-19T00:21:17.407Z,100361.00
2023-02-19T00:23:44.227Z,100366.00
2023-02-19T00:26:18.666Z,100366.00
2023-02-19T00:28:48.830Z,100362.00
2023-02-19T00:31:17.846Z,100358.00
2023-02-19T00:33:45.715Z,100355.00
2023-02-19T00:36:12.428Z,100337.00
2023-02-19T00:38:40.467Z,100340.00
2023-02-19T00:41:19.011Z,100344.00
2023-02-19T00:43:47.401Z,100345.00
2023-02-19T00:46:15.069Z,100334.00
2023-02-19T00:48:41.646Z,100340.00
2023-02-19T00:51:08.492Z,100341.00
2023-02-19T00:53:35.188Z,100344.00
2023-02-19T00:56:01.719Z,100345.00
2023-02-19T00:58:28.376Z,100349.00
2023-02-19T01:00:54.943Z,100347.00
2023-02-19T01:03:22.635Z,100350.00
2023-02-19T01:05:50.540Z,100349.00
2023-02-19T01:08:17.478Z,100332.00
2023-02-19T01:10:44.462Z,100334.00
2023-02-19T01:13:11.088Z,100334.00
2023-02-19T01:15:37.829Z,100325.00
2023-02-19T01:18:04.579Z,100324.00
2023-02-19T01:20:31.230Z,100324.00
2023-02-19T01:22:57.730Z,100320.00
2023-02-19T01:25:24.496Z,100315.00
2023-02-19T01:27:51.065Z,100309.00
2023-02-19T01:30:17.732Z,100291.00
2023-02-19T01:32:44.764Z,100295.00
2023-02-19T01:35:11.322Z,100287.00
2023-02-19T01:37:37.820Z,100271.00
2023-02-19T01:40:04.836Z,100269.00
2023-02-19T01:42:31.442Z,100254.00
2023-02-19T01:45:24.401Z,100261.00
2023-02-19T01:48:00.761Z,100267.00
2023-02-19T01:50:29.012Z,100278.00
2023-02-19T01:52:55.843Z,100279.00
2023-02-19T01:55:22.626Z,100275.00
2023-02-19T01:57:52.323Z,100269.00
2023-02-19T02:00:19.069Z,100261.00
2023-02-19T02:02:49.882Z,100258.00
2023-02-19T02:05:36.249Z,100248.00
2023-02-19T02:08:21.964Z,100245.00
2023-02-19T02:10:49.023Z,100243.00
2023-02-19T02:13:15.780Z,100230.00
2023-02-19T02:15:51.580Z,100232.00
2023-02-19T02:18:36.479Z,100232.00
2023-02-19T02:21:12.407Z,100240.00
2023-02-19T02:24:00.637Z,100240.00
2023-02-19T02:26:56.403Z,100233.00
2023-02-19T02:29:29.880Z,100233.00
2023-02-19T02:32:04.275Z,100240.00
2023-02-19T02:34:39.865Z,100242.00
2023-02-19T02:37:08.062Z,100251.00
2023-02-19T02:39:36.607Z,100252.00
2023-02-19T02:42:24.922Z,100241.00
2023-02-19T02:45:37.600Z,100237.00
2023-02-19T02:48:34.729Z,100234.00
2023-02-19T02:51:06.753Z,100242.00
2023-02-19T02:54:06.050Z,100233.00
2023-02-19T02:56:34.511Z,100232.00
2023-02-19T02:59:02.798Z,100229.00
2023-02-19T03:01:53.561Z,100232.00
2023-02-19T03:04:34.207Z,100232.00
2023-02-19T03:07:05.806Z,100243.00
2023-02-19T03:09:41.310Z,100243.00
2023-02-19T03:12:32.774Z,100231.00
2023-02-19T03:15:20.335Z,100245.00
2023-02-19T03:18:11.041Z,100255.00
2023-02-19T03:20:42.241Z,100251.00
2023-02-19T03:23:09.683Z,100253.00
2023-02-19T03:25:56.547Z,100255.00
2023-02-19T03:28:54.380Z,100255.00
2023-02-19T03:31:24.137Z,100263.00
2023-02-19T03:33:53.876Z,100267.00
2023-02-19T03:36:27.683Z,100270.00
2023-02-19T03:39:07.742Z,100271.00
2023-02-19T03:41:56.252Z,100273.00
2023-02-19T03:44:32.987Z,100274.00
2023-02-19T03:47:04.929Z,100266.00
2023-02-19T03:49:51.904Z,100276.00
2023-02-19T03:52:31.775Z,100283.00
2023-02-19T03:55:06.957Z,100281.00
2023-02-19T03:57:43.845Z,100275.00
2023-02-19T04:00:17.232Z,100280.00
2023-02-19T04:03:08.300Z,100278.00
2023-02-19T04:05:37.739Z,100286.00
2023-02-19T04:08:11.469Z,100282.00
2023-02-19T04:10:45.122Z,100283.00
2023-02-19T04:13:29.526Z,100266.00
2023-02-19T04:16:00.478Z,100288.00
2023-02-19T04:18:31.462Z,100295.00
2023-02-19T04:20:58.912Z,100291.00
2023-02-19T04:23:26.833Z,100293.00
2023-02-19T04:25:56.847Z,100294.00
2023-02-19T04:28:23.680Z,100297.00
2023-02-19T04:30:50.405Z,100311.00
2023-02-19T04:33:16.945Z,100308.00
2023-02-19T04:35:43.440Z,100313.00
2023-02-19T04:38:10.217Z,100314.00
2023-02-19T04:40:36.831Z,100313.00
2023-02-19T04:43:03.366Z,100306.00
2023-02-19T04:45:29.880Z,100315.00
2023-02-19T04:47:58.773Z,100309.00
2023-02-19T04:50:26.001Z,100311.00
2023-02-19T04:52:52.545Z,100324.00
2023-02-19T04:55:19.003Z,100319.00
2023-02-19T04:57:45.568Z,100331.00
2023-02-19T05:00:13.192Z,100330.00
2023-02-19T05:02:39.764Z,100325.00
2023-02-19T05:05:06.535Z,100331.00
2023-02-19T05:07:33.592Z,100333.00
2023-02-19T05:10:00.153Z,100334.00
2023-02-19T05:12:27.064Z,100339.00
2023-02-19T05:14:53.638Z,100338.00
2023-02-19T05:17:20.325Z,100337.00
2023-02-19T05:19:47.027Z,100343.00
2023-02-19T05:22:16.270Z,100330.00
2023-02-19T05:24:42.856Z,100334.00
2023-02-19T05:27:09.410Z,100337.00
2023-02-19T05:29:35.931Z,100332.00
2023-02-19T05:32:02.548Z,100324.00
2023-02-19T05:34:29.299Z,100332.00
2023-02-19T05:36:55.800Z,100333.00
2023-02-19T05:39:22.324Z,100335.00
2023-02-19T05:41:48.866Z,100339.00
2023-02-19T05:44:15.370Z,100338.00
2023-02-19T05:46:42.000Z,100337.00
2023-02-19T05:49:08.612Z,100338.00
2023-02-19T05:54:48.207Z,100342.00
2023-02-19T05:57:14.715Z,100347.00
2023-02-19T05:59:41.216Z,100342.00
2023-02-19T06:02:09.162Z,100355.00
2023-02-19T06:04:36.116Z,100351.00
2023-02-19T06:07:02.646Z,100349.00
2023-02-19T06:09:29.257Z,100359.00
2023-02-19T06:11:55.908Z,100359.00
2023-02-19T06:14:22.431Z,100354.00
2023-02-19T06:16:49.062Z,100351.00
2023-02-19T06:19:15.689Z,100335.00
2023-02-19T06:21:42.231Z,100357.00
2023-02-19T06:24:09.594Z,100353.00
2023-02-19T06:26:36.135Z,100354.00
2023-02-19T06:29:02.951Z,100362.00
2023-02-19T06:31:29.609Z,100362.00
2023-02-19T06:33:56.206Z,100364.00
2023-02-19T06:36:23.533Z,100364.00
2023-02-19T06:38:50.137Z,100361.00
2023-02-19T06:41:17.375Z,100367.00
2023-02-19T06:43:44.031Z,100378.00
2023-02-19T06:46:11.951Z,100383.00
2023-02-19T06:48:39.139Z,100390.00
2023-02-19T06:51:05.839Z,100382.00
2023-02-19T06:53:32.388Z,100389.00
2023-02-19T06:56:00.193Z,100398.00
2023-02-19T06:58:27.131Z,100418.00
2023-02-19T07:00:54.178Z,100422.00
2023-02-19T07:03:20.972Z,100426.00
2023-02-19T07:05:47.731Z,100430.00
2023-02-19T07:08:14.402Z,100437.00
2023-02-19T07:10:40.930Z,100433.00
2023-02-19T07:13:07.471Z,100436.00
2023-02-19T07:15:34.009Z,100427.00
2023-02-19T07:18:00.577Z,100438.00
2023-02-19T07:20:27.080Z,100432.00
2023-02-19T07:22:53.776Z,100431.00
2023-02-19T07:25:20.558Z,100436.00
2023-02-19T07:27:47.088Z,100449.00
2023-02-19T07:30:13.763Z,100456.00
2023-02-19T07:32:45.279Z,100457.00
2023-02-19T07:35:11.946Z,100473.00
2023-02-19T07:37:38.535Z,100468.00
2023-02-19T07:40:06.052Z,100472.00
2023-02-19T07:42:33.102Z,100468.00
2023-02-19T07:45:00.708Z,100475.00
2023-02-19T07:47:27.339Z,100481.00
2023-02-19T07:49:53.820Z,100492.00
2023-02-19T07:52:20.377Z,100482.00
2023-02-19T07:54:46.922Z,100489.00
2023-02-19T07:57:22.584Z,100494.00
2023-02-19T07:59:49.151Z,100501.00
2023-02-19T08:02:36.185Z,100496.00
2023-02-19T08:05:03.444Z,100502.00
2023-02-19T08:07:34.141Z,100517.00
2023-02-19T08:10:19.803Z,100521.00
2023-02-19T08:13:04.963Z,100534.00
2023-02-19T08:15:32.888Z,100535.00
2023-02-19T08:17:59.395Z,100549.00
2023-02-19T08:20:26.027Z,100544.00
2023-02-19T08:22:52.603Z,100553.00
2023-02-19T08:25:19.133Z,100555.00
2023-02-19T08:27:46.040Z,100559.00
2023-02-19T08:30:12.875Z,100571.00
2023-02-19T08:32:39.415Z,100578.00
2023-02-19T08:35:06.432Z,100579.00
2023-02-19T08:37:33.002Z,100591.00
2023-02-19T08:39:59.543Z,100594.00
2023-02-19T08:42:29.115Z,100606.00
2023-02-19T08:44:56.243Z,100616.00
2023-02-19T08:47:22.878Z,100603.00
2023-02-19T08:49:49.519Z,100618.00
2023-02-19T08:52:16.045Z,100606.00
2023-02-19T08:54:42.558Z,100620.00
2023-02-19T08:57:09.393Z,100624.00
2023-02-19T08:59:35.980Z,100626.00
2023-02-19T09:02:02.618Z,100619.00
2023-02-19T09:04:29.208Z,100631.00
2023-02-19T09:06:55.802Z,100637.00
2023-02-19T09:09:22.527Z,100628.00
2023-02-19T09:11:49.371Z,100646.00
2023-02-19T09:14:15.907Z,100646.00
2023-02-19T09:16:42.398Z,100664.00
2023-02-19T09:19:08.942Z,100658.00
2023-02-19T09:21:35.466Z,100639.00
2023-02-19T09:24:01.968Z,100658.00
2023-02-19T09:26:28.522Z,100662.00
2023-02-19T09:28:55.065Z,100673.00
2023-02-19T09:31:21.774Z,100679.00
2023-02-19T09:33:48.841Z,100671.00
2023-02-19T09:36:16.329Z,100669.00
2023-02-19T09:38:42.876Z,100678.00
2023-02-19T09:41:33.220Z,100674.00
2023-02-19T09:44:01.045Z,100684.00
2023-02-19T09:46:32.547Z,100689.00
2023-02-19T09:49:04.715Z,100679.00
2023-02-19T09:51:33.941Z,100676.00
2023-02-19T09:54:01.311Z,100685.00
2023-02-19T09:56:27.952Z,100698.00
2023-02-19T09:58:56.610Z,100703.00
2023-02-19T10:01:26.758Z,100707.00
2023-02-19T10:03:53.318Z,100698.00
2023-02-19T10:06:25.285Z,100712.00
2023-02-19T10:09:14.340Z,100720.00
2023-02-19T10:11:41.859Z,100717.00
2023-02-19T10:14:13.876Z,100714.00
2023-02-19T10:16:42.427Z,100721.00
2023-02-19T10:19:13.222Z,100732.00
2023-02-19T10:21:40.101Z,100729.00
2023-02-19T10:24:07.491Z,100730.00
2023-02-19T10:26:36.918Z,100724.00
2023-02-19T10:29:04.267Z,100738.00
2023-02-19T10:31:32.786Z,100746.00
2023-02-19T10:34:01.920Z,100766.00
2023-02-19T10:36:32.580Z,100759.00
2023-02-19T10:39:00.732Z,100753.00
2023-02-19T10:41:27.786Z,100765.00
2023-02-19T10:44:07.813Z,100752.00
2023-02-19T10:46:42.359Z,100770.00
2023-02-19T10:49:30.054Z,100770.00
2023-02-19T10:51:58.383Z,100777.00
2023-02-19T10:54:28.829Z,100787.00
2023-02-19T10:56:55.697Z,100781.00
2023-02-19T10:59:28.046Z,100800.00
2023-02-19T11:01:55.931Z,100794.00
2023-02-19T11:04:22.862Z,100793.00
2023-02-19T11:06:49.561Z,100809.00
2023-02-19T11:09:24.900Z,100815.00
2023-02-19T11:11:52.563Z,100811.00
2023-02-19T11:14:21.470Z,100815.00
2023-02-19T11:16:51.900Z,100816.00
2023-02-19T11:19:31.939Z,100818.00
2023-02-19T11:21:59.538Z,100830.00
2023-02-19T11:24:30.838Z,100829.00
2023-02-19T11:26:58.389Z,100820.00
2023-02-19T11:29:28.560Z,100832.00
2023-02-19T11:32:22.755Z,100844.00
2023-02-19T11:34:49.390Z,100843.00
2023-02-19T11:37:17.545Z,100838.00
2023-02-19T11:39:48.844Z,100837.00
2023-02-19T11:42:36.060Z,100834.00
2023-02-19T11:45:25.142Z,100836.00
2023-02-19T11:48:10.797Z,100845.00
2023-02-19T11:50:48.722Z,100856.00
2023-02-19T11:53:25.162Z,100856.00
2023-02-19T11:56:10.221Z,100858.00
2023-02-19T11:58:51.845Z,100851.00
2023-02-19T12:01:38.191Z,100856.00
2023-02-19T12:04:37.765Z,100851.00
2023-02-19T12:07:16.846Z,100852.00
2023-02-19T12:09:46.429Z,100857.00
2023-02-19T12:12:31.625Z,100852.00
2023-02-19T12:15:29.195Z,100856.00
2023-02-19T12:18:20.574Z,100859.00
2023-02-19T12:20:56.636Z,100864.00
2023-02-19T12:23:35.171Z,100878.00
2023-02-19T12:26:24.953Z,100867.00
2023-02-19T12:29:29.062Z,100871.00
2023-02-19T12:32:09.828Z,100872.00
2023-02-19T12:35:14.494Z,100869.00
2023-02-19T12:37:46.934Z,100877.00
2023-02-19T12:40:38.746Z,100883.00
2023-02-19T12:43:18.195Z,100899.00
2023-02-19T12:45:58.941Z,100898.00
2023-02-19T12:48:30.795Z,100909.00
2023-02-19T12:51:07.155Z,100912.00
2023-02-19T12:53:48.288Z,100904.00
2023-02-19T12:56:22.404Z,100911.00
2023-02-19T12:58:52.059Z,100903.00
2023-02-19T13:01:23.675Z,100920.00
2023-02-19T13:03:58.542Z,100911.00
2023-02-19T13:06:54.291Z,100914.00
2023-02-19T13:09:28.209Z,100920.00
2023-02-19T13:12:07.044Z,100917.00
2023-02-19T13:14:42.665Z,100916.00
2023-02-19T13:17:43.647Z,100927.00
2023-02-19T13:20:34.640Z,100924.00
2023-02-19T13:23:42.705Z,100924.00
2023-02-19T13:26:37.367Z,100924.00
2023-02-19T13:29:41.494Z,100931.00
2023-02-19T13:32:45.564Z,100931.00
2023-02-19T13:35:36.366Z,100927.00
2023-02-19T13:38:03.890Z,100928.00
2023-02-19T13:40:36.266Z,100938.00
2023-02-19T13:43:05.151Z,100926.00
2023-02-19T13:45:41.048Z,100920.00
2023-02-19T13:48:34.106Z,100933.00
2023-02-19T13:51:13.285Z,100935.00
2023-02-19T13:53:45.997Z,100937.00
2023-02-19T13:56:31.518Z,100935.00
2023-02-19T13:59:26.691Z,100940.00
2023-02-19T14:01:56.182Z,100951.00
2023-02-19T14:04:22.869Z,100951.00
2023-02-19T14:07:04.590Z,100955.00
2023-02-19T14:09:37.128Z,100954.00
2023-02-19T14:12:03.774Z,100971.00
2023-02-19T14:14:42.490Z,100962.00
2023-02-19T14:17:08.963Z,100969.00
2023-02-19T14:19:41.606Z,100971.00
2023-02-19T14:22:45.523Z,100969.00
2023-02-19T14:25:27.187Z,100985.00
2023-02-19T14:28:05.874Z,100979.00
2023-02-19T14:30:34.120Z,100981.00
2023-02-19T14:33:10.720Z,100980.00
2023-02-19T14:35:43.465Z,100977.00
2023-02-19T14:38:21.567Z,100987.00
2023-02-19T14:40:49.027Z,100987.00
2023-02-19T14:43:18.263Z,100981.00
2023-02-19T14:45:51.787Z,100974.00
2023-02-19T14:48:41.663Z,100971.00
2023-02-19T14:51:28.296Z,100967.00
2023-02-19T14:53:56.385Z,100978.00
2023-02-19T14:56:32.161Z,100990.00
2023-02-19T14:59:14.206Z,100996.00
2023-02-19T15:01:41.035Z,100998.00
2023-02-19T15:04:22.656Z,100995.00
2023-02-19T15:06:49.487Z,100986.00
2023-02-19T15:09:16.619Z,100973.00
2023-02-19T15:11:43.692Z,100994.00
2023-02-19T15:14:19.400Z,100995.00
2023-02-19T15:16:46.207Z,101015.00
2023-02-19T15:19:13.844Z,101006.00
2023-02-19T15:21:45.466Z,101016.00
2023-02-19T15:24:14.678Z,101014.00
2023-02-19T15:26:43.544Z,101008.00
2023-02-19T15:29:13.160Z,101018.00
2023-02-19T15:31:49.946Z,101018.00
2023-02-19T15:34:20.873Z,101027.00
2023-02-19T15:36:53.110Z,101013.00
2023-02-19T15:39:23.984Z,101016.00
2023-02-19T15:41:59.126Z,101021.00
2023-02-19T15:44:28.726Z,101022.00
2023-02-19T15:46:55.680Z,101032.00
2023-02-19T15:49:31.039Z,101040.00
2023-02-19T15:52:02.278Z,101036.00
2023-02-19T15:54:35.966Z,101046.00
2023-02-19T15:57:06.594Z,101033.00
2023-02-19T15:59:41.376Z,101051.00
2023-02-19T16:02:11.976Z,101042.00
2023-02-19T16:04:39.084Z,101048.00
2023-02-19T16:07:05.826Z,101048.00
2023-02-19T16:09:36.313Z,101059.00
2023-02-19T16:12:16.642Z,101065.00
2023-02-19T16:14:43.548Z,101055.00
2023-02-19T16:17:10.069Z,101066.00
2023-02-19T16:19:43.329Z,101076.00
2023-02-19T16:22:19.703Z,101078.00
2023-02-19T16:24:49.438Z,101073.00
2023-02-19T16:27:40.239Z,101084.00
2023-02-19T16:30:31.632Z,101106.00
2023-02-19T16:33:36.393Z,101102.00
2023-02-19T16:36:41.719Z,101106.00
2023-02-19T16:39:18.367Z,101113.00
2023-02-19T16:41:47.990Z,101118.00
2023-02-19T16:44:29.620Z,101122.00
2023-02-19T16:49:49.468Z,101116.00
2023-02-19T16:52:18.878Z,101124.00
2023-02-19T16:54:58.460Z,101130.00
2023-02-19T16:57:33.799Z,101018.00
2023-02-19T17:00:03.636Z,101039.00
2023-02-19T17:02:38.235Z,101102.00
2023-02-19T17:05:10.490Z,101090.00
2023-02-19T17:07:39.661Z,101140.00
2023-02-19T17:10:06.603Z,101143.00
2023-02-19T17:12:33.354Z,101150.00
2023-02-19T17:15:00.090Z,101151.00
2023-02-19T17:17:26.861Z,101139.00
2023-02-19T17:19:53.503Z,101144.00
2023-02-19T17:22:20.107Z,101116.00
2023-02-19T17:24:48.235Z,101129.00
2023-02-19T17:27:15.005Z,101140.00
2023-02-19T17:29:44.554Z,101160.00
2023-02-19T17:32:11.321Z,101145.00
2023-02-19T17:34:38.377Z,101158.00
2023-02-19T17:37:05.130Z,101156.00
2023-02-19T17:39:31.735Z,101153.00
2023-02-19T17:41:58.561Z,101148.00
2023-02-19T17:44:25.281Z,101158.00
2023-02-19T17:46:51.929Z,101152.00
2023-02-19T17:49:19.578Z,101154.00
2023-02-19T17:51:46.119Z,101164.00
2023-02-19T17:54:12.707Z,101166.00
2023-02-19T17:56:43.191Z,101166.00
2023-02-19T17:59:10.779Z,101144.00
2023-02-19T18:01:37.604Z,101177.00
2023-02-19T18:04:04.709Z,101170.00
2023-02-19T18:06:31.570Z,101164.00
2023-02-19T18:08:58.310Z,101183.00
2023-02-19T18:11:25.055Z,101181.00
2023-02-19T18:13:52.169Z,101159.00
2023-02-19T18:16:19.172Z,101170.00
2023-02-19T18:18:45.947Z,101186.00
2023-02-19T18:21:13.802Z,101190.00
2023-02-19T18:23:41.048Z,101178.00
2023-02-19T18:26:10.300Z,101194.00
2023-02-19T18:28:38.087Z,101200.00
2023-02-19T18:31:05.197Z,101200.00
2023-02-19T18:33:33.759Z,101191.00
2023-02-19T18:36:00.454Z,101196.00
2023-02-19T18:38:27.207Z,101200.00
2023-02-19T18:40:53.719Z,101201.00
2023-02-19T18:43:20.311Z,101205.00
2023-02-19T18:45:47.052Z,101207.00
2023-02-19T18:48:13.843Z,101210.00
2023-02-19T18:50:40.499Z,101205.00
2023-02-19T18:53:07.462Z,101195.00
2023-02-19T18:55:34.253Z,101217.00
2023-02-19T18:58:00.875Z,101210.00
2023-02-19T19:00:27.484Z,101202.00
2023-02-19T19:02:59.438Z,101212.00
2023-02-19T19:05:26.135Z,101193.00
2023-02-19T19:07:54.075Z,101196.00
2023-02-19T19:10:21.262Z,101206.00
2023-02-19T19:12:48.172Z,101199.00
2023-02-19T19:15:18.150Z,101195.00
2023-02-19T19:17:45.363Z,101211.00
2023-02-19T19:20:12.204Z,101194.00
2023-02-19T19:22:38.936Z,101198.00
2023-02-19T19:25:05.940Z,101202.00
2023-02-19T19:27:32.489Z,101220.00
2023-02-19T19:29:59.110Z,101227.00
2023-02-19T19:32:25.807Z,101214.00
2023-02-19T19:34:52.439Z,101217.00
2023-02-19T19:37:19.141Z,101210.00
2023-02-19T19:39:45.732Z,101203.00
2023-02-19T19:42:12.312Z,101212.00
2023-02-19T19:44:39.142Z,101213.00
2023-02-19T19:47:05.821Z,101210.00
2023-02-19T19:49:33.310Z,101199.00
2023-02-19T19:52:01.073Z,101203.00
2023-02-19T19:54:28.392Z,101199.00
2023-02-19T19:56:57.829Z,101188.00
2023-02-19T19:59:24.528Z,101185.00
2023-02-19T20:01:53.082Z,101200.00
2023-02-19T20:04:21.278Z,101164.00
2023-02-19T20:06:48.044Z,101205.00
2023-02-19T20:09:15.124Z,101195.00
2023-02-19T20:11:50.065Z,101194.00
2023-02-19T20:14:17.968Z,101195.00
2023-02-19T20:16:44.905Z,101196.00
2023-02-19T20:19:12.095Z,101216.00
2023-02-19T20:21:38.652Z,101211.00
2023-02-19T20:24:05.623Z,101212.00
2023-02-19T20:26:32.537Z,101202.00
2023-02-19T20:28:59.370Z,101203.00
2023-02-19T20:31:26.501Z,101214.00
2023-02-19T20:33:53.271Z,101216.00
2023-02-19T20:36:20.716Z,101208.00
2023-02-19T20:38:49.486Z,101217.00
2023-02-19T20:41:16.235Z,101221.00
2023-02-19T20:43:42.820Z,101219.00
2023-02-19T20:46:09.725Z,101200.00
2023-02-19T20:48:37.637Z,101228.00
2023-02-19T20:51:04.380Z,101228.00
2023-02-19T20:53:32.069Z,101225.00
2023-02-19T20:55:58.823Z,101207.00
2023-02-19T20:58:26.012Z,101229.00
2023-02-19T21:00:54.219Z,101225.00
2023-02-19T21:03:21.097Z,101226.00
2023-02-19T21:05:47.711Z,101221.00
2023-02-19T21:08:17.146Z,101233.00
2023-02-19T21:10:45.534Z,101223.00
2023-02-19T21:13:12.704Z,101235.00
2023-02-19T21:15:39.227Z,101228.00
2023-02-19T21:18:05.856Z,101234.00
2023-02-19T21:20:32.495Z,101240.00
2023-02-19T21:22:59.213Z,101239.00
2023-02-19T21:25:25.895Z,101230.00
2023-02-19T21:27:52.641Z,101224.00
2023-02-19T21:30:19.352Z,101211.00
2023-02-19T21:32:45.873Z,101218.00
2023-02-19T21:35:12.341Z,101217.00
2023-02-19T21:37:42.177Z,101196.00
2023-02-19T21:40:09.382Z,101193.00
2023-02-19T21:42:35.876Z,101195.00
2023-02-19T21:45:03.604Z,101193.00
2023-02-19T21:47:30.159Z,101186.00
2023-02-19T21:49:56.658Z,101184.00
2023-02-19T21:52:23.341Z,101195.00
2023-02-19T21:54:49.854Z,101191.00
2023-02-19T21:57:16.393Z,101184.00
2023-02-19T21:59:42.886Z,101183.00
2023-02-19T22:02:09.766Z,101188.00
2023-02-19T22:04:36.263Z,101168.00
2023-02-19T22:07:02.772Z,101180.00
2023-02-19T22:09:29.322Z,101161.00
2023-02-19T22:11:55.862Z,101166.00
2023-02-19T22:14:22.563Z,101163.00
2023-02-19T22:16:49.152Z,101166.00
2023-02-19T22:19:15.854Z,101163.00
2023-02-19T22:21:43.971Z,101163.00
2023-02-19T22:24:18.581Z,101148.00
2023-02-19T22:26:45.925Z,101147.00
2023-02-19T22:29:14.849Z,101141.00
2023-02-19T22:31:41.608Z,101121.00
2023-02-19T22:34:09.029Z,101134.00
2023-02-19T22:36:38.878Z,101126.00
2023-02-19T22:39:05.974Z,101129.00
2023-02-19T22:41:32.684Z,101138.00
2023-02-19T22:43:59.916Z,101126.00
2023-02-19T22:46:28.958Z,101141.00
2023-02-19T22:48:55.912Z,101140.00
2023-02-19T22:51:23.592Z,101123.00
2023-02-19T22:53:52.038Z,101153.00
2023-02-19T22:56:20.468Z,101160.00
2023-02-19T22:58:46.964Z,101164.00
2023-02-19T23:01:14.529Z,101171.00
2023-02-19T23:04:01.103Z,101170.00
2023-02-19T23:06:29.743Z,101162.00
2023-02-19T23:08:58.260Z,101175.00
2023-02-19T23:11:29.800Z,101163.00
2023-02-19T23:13:57.317Z,101163.00
2023-02-19T23:16:23.943Z,101170.00
2023-02-19T23:18:50.660Z,101169.00
2023-02-19T23:21:18.306Z,101176.00
2023-02-19T23:23:46.084Z,101157.00
2023-02-19T23:26:13.559Z,101166.00
2023-02-19T23:28:41.776Z,101158.00
2023-02-19T23:31:08.820Z,101149.00
2023-02-19T23:33:35.463Z,101148.00
2023-02-19T23:36:02.035Z,101149.00
2023-02-19T23:38:28.600Z,101135.00
2023-02-19T23:40:55.201Z,101144.00
2023-02-19T23:43:21.772Z,101129.00
2023-02-19T23:45:48.571Z,101134.00
2023-02-19T23:48:15.303Z,101135.00
2023-02-19T23:50:43.153Z,101125.00
2023-02-19T23:53:09.751Z,101126.00
2023-02-19T23:55:37.905Z,101126.00
2023-02-19T23:58:04.444Z,101124.00
